sensor_id;sensor_type;location;lat;lon;timestamp;P1;durP1;ratioP1;P2;durP2;ratioP2
43311;SDS011;30041;48.300;16.352;2023-03-12T00:02:13;3.05;;;0.95;;
43311;SDS011;30041;48.300;16.352;2023-03-12T00:04:39;1.65;;;0.90;;
43311;SDS011;30041;48.300;16.352;2023-03-12T00:07:04;1.27;;;0.65;;
43311;SDS011;30041;48.300;16.352;2023-03-12T00:09:30;1.95;;;0.73;;
43311;SDS011;30041;48.300;16.352;2023-03-12T00:11:58;1.20;;;0.60;;
43311;SDS011;30041;48.300;16.352;2023-03-12T00:14:24;1.10;;;0.80;;
43311;SDS011;30041;48.300;16.352;2023-03-12T00:16:49;0.77;;;0.60;;
43311;SDS011;30041;48.300;16.352;2023-03-12T00:19:15;1.02;;;0.70;;
43311;SDS011;30041;48.300;16.352;2023-03-12T00:21:40;0.80;;;0.70;;
43311;SDS011;30041;48.300;16.352;2023-03-12T00:24:06;1.65;;;0.82;;
43311;SDS011;30041;48.300;16.352;2023-03-12T00:26:32;0.85;;;0.70;;
43311;SDS011;30041;48.300;16.352;2023-03-12T00:28:57;1.83;;;0.85;;
43311;SDS011;30041;48.300;16.352;2023-03-12T00:31:27;1.38;;;0.77;;
43311;SDS011;30041;48.300;16.352;2023-03-12T00:33:55;0.80;;;0.60;;
43311;SDS011;30041;48.300;16.352;2023-03-12T00:36:21;1.45;;;0.80;;
43311;SDS011;30041;48.300;16.352;2023-03-12T00:38:49;0.75;;;0.68;;
43311;SDS011;30041;48.300;16.352;2023-03-12T00:41:16;0.93;;;0.70;;
43311;SDS011;30041;48.300;16.352;2023-03-12T00:43:42;0.98;;;0.68;;
43311;SDS011;30041;48.300;16.352;2023-03-12T00:46:07;1.33;;;0.77;;
43311;SDS011;30041;48.300;16.352;2023-03-12T00:48:33;1.20;;;0.70;;
43311;SDS011;30041;48.300;16.352;2023-03-12T00:50:58;0.68;;;0.57;;
43311;SDS011;30041;48.300;16.352;2023-03-12T00:53:24;1.30;;;0.77;;
43311;SDS011;30041;48.300;16.352;2023-03-12T00:55:49;1.73;;;0.95;;
43311;SDS011;30041;48.300;16.352;2023-03-12T00:58:15;1.70;;;0.82;;
43311;SDS011;30041;48.300;16.352;2023-03-12T01:00:40;0.90;;;0.63;;
43311;SDS011;30041;48.300;16.352;2023-03-12T01:03:06;1.17;;;0.75;;
43311;SDS011;30041;48.300;16.352;2023-03-12T01:05:31;1.50;;;0.80;;
43311;SDS011;30041;48.300;16.352;2023-03-12T01:07:57;1.60;;;0.80;;
43311;SDS011;30041;48.300;16.352;2023-03-12T01:10:23;1.45;;;0.80;;
43311;SDS011;30041;48.300;16.352;2023-03-12T01:12:49;1.15;;;0.63;;
43311;SDS011;30041;48.300;16.352;2023-03-12T01:15:15;1.45;;;0.77;;
43311;SDS011;30041;48.300;16.352;2023-03-12T01:17:41;1.00;;;0.70;;
43311;SDS011;30041;48.300;16.352;2023-03-12T01:20:08;0.60;;;0.50;;
43311;SDS011;30041;48.300;16.352;2023-03-12T01:22:34;1.00;;;0.65;;
43311;SDS011;30041;48.300;16.352;2023-03-12T01:25:01;1.00;;;0.70;;
43311;SDS011;30041;48.300;16.352;2023-03-12T01:27:27;2.53;;;0.60;;
43311;SDS011;30041;48.300;16.352;2023-03-12T01:29:52;1.23;;;0.55;;
43311;SDS011;30041;48.300;16.352;2023-03-12T01:32:18;1.00;;;0.70;;
43311;SDS011;30041;48.300;16.352;2023-03-12T01:34:44;1.75;;;0.55;;
43311;SDS011;30041;48.300;16.352;2023-03-12T01:37:09;0.93;;;0.52;;
43311;SDS011;30041;48.300;16.352;2023-03-12T01:39:35;0.80;;;0.50;;
43311;SDS011;30041;48.300;16.352;2023-03-12T01:42:00;0.98;;;0.70;;
43311;SDS011;30041;48.300;16.352;2023-03-12T01:44:26;1.20;;;0.63;;
43311;SDS011;30041;48.300;16.352;2023-03-12T01:46:52;0.90;;;0.60;;
43311;SDS011;30041;48.300;16.352;2023-03-12T01:49:39;0.82;;;0.60;;
43311;SDS011;30041;48.300;16.352;2023-03-12T01:52:05;1.10;;;0.57;;
43311;SDS011;30041;48.300;16.352;2023-03-12T01:54:38;0.90;;;0.60;;
43311;SDS011;30041;48.300;16.352;2023-03-12T01:57:10;0.88;;;0.65;;
43311;SDS011;30041;48.300;16.352;2023-03-12T02:00:00;0.80;;;0.60;;
43311;SDS011;30041;48.300;16.352;2023-03-12T02:02:26;1.00;;;0.60;;
43311;SDS011;30041;48.300;16.352;2023-03-12T02:04:59;1.55;;;0.65;;
43311;SDS011;30041;48.300;16.352;2023-03-12T02:07:31;1.85;;;0.60;;
43311;SDS011;30041;48.300;16.352;2023-03-12T02:09:58;0.90;;;0.60;;
43311;SDS011;30041;48.300;16.352;2023-03-12T02:12:24;0.50;;;0.40;;
43311;SDS011;30041;48.300;16.352;2023-03-12T02:14:49;0.50;;;0.40;;
43311;SDS011;30041;48.300;16.352;2023-03-12T02:17:15;0.80;;;0.60;;
43311;SDS011;30041;48.300;16.352;2023-03-12T02:22:18;1.33;;;0.57;;
43311;SDS011;30041;48.300;16.352;2023-03-12T02:25:01;1.38;;;0.63;;
43311;SDS011;30041;48.300;16.352;2023-03-12T02:27:36;1.13;;;0.70;;
43311;SDS011;30041;48.300;16.352;2023-03-12T02:30:03;0.45;;;0.30;;
43311;SDS011;30041;48.300;16.352;2023-03-12T02:32:32;1.27;;;0.65;;
43311;SDS011;30041;48.300;16.352;2023-03-12T02:35:02;0.85;;;0.47;;
43311;SDS011;30041;48.300;16.352;2023-03-12T02:37:29;0.75;;;0.50;;
43311;SDS011;30041;48.300;16.352;2023-03-12T02:40:04;0.88;;;0.50;;
43311;SDS011;30041;48.300;16.352;2023-03-12T02:42:53;0.88;;;0.57;;
43311;SDS011;30041;48.300;16.352;2023-03-12T02:45:19;1.20;;;0.60;;
43311;SDS011;30041;48.300;16.352;2023-03-12T02:47:45;1.02;;;0.50;;
43311;SDS011;30041;48.300;16.352;2023-03-12T02:50:11;1.30;;;0.70;;
43311;SDS011;30041;48.300;16.352;2023-03-12T02:52:37;1.23;;;0.70;;
43311;SDS011;30041;48.300;16.352;2023-03-12T02:55:06;0.47;;;0.40;;
43311;SDS011;30041;48.300;16.352;2023-03-12T02:57:32;0.82;;;0.60;;
43311;SDS011;30041;48.300;16.352;2023-03-12T02:59:58;1.77;;;0.60;;
43311;SDS011;30041;48.300;16.352;2023-03-12T03:02:24;0.60;;;0.40;;
43311;SDS011;30041;48.300;16.352;2023-03-12T03:04:49;1.17;;;0.70;;
43311;SDS011;30041;48.300;16.352;2023-03-12T03:07:15;0.98;;;0.60;;
43311;SDS011;30041;48.300;16.352;2023-03-12T03:09:40;0.90;;;0.60;;
43311;SDS011;30041;48.300;16.352;2023-03-12T03:12:06;0.68;;;0.50;;
43311;SDS011;30041;48.300;16.352;2023-03-12T03:14:32;1.20;;;0.55;;
43311;SDS011;30041;48.300;16.352;2023-03-12T03:16:58;1.70;;;0.60;;
43311;SDS011;30041;48.300;16.352;2023-03-12T03:19:23;0.85;;;0.50;;
43311;SDS011;30041;48.300;16.352;2023-03-12T03:21:49;0.88;;;0.55;;
43311;SDS011;30041;48.300;16.352;2023-03-12T03:24:15;0.80;;;0.52;;
43311;SDS011;30041;48.300;16.352;2023-03-12T03:26:40;1.05;;;0.60;;
43311;SDS011;30041;48.300;16.352;2023-03-12T03:29:06;1.23;;;0.40;;
43311;SDS011;30041;48.300;16.352;2023-03-12T03:31:31;1.13;;;0.65;;
43311;SDS011;30041;48.300;16.352;2023-03-12T03:33:57;0.93;;;0.50;;
43311;SDS011;30041;48.300;16.352;2023-03-12T03:36:23;1.25;;;0.60;;
43311;SDS011;30041;48.300;16.352;2023-03-12T03:38:48;0.82;;;0.50;;
43311;SDS011;30041;48.300;16.352;2023-03-12T03:41:17;1.00;;;0.60;;
43311;SDS011;30041;48.300;16.352;2023-03-12T03:43:43;0.77;;;0.60;;
43311;SDS011;30041;48.300;16.352;2023-03-12T03:46:10;0.90;;;0.40;;
43311;SDS011;30041;48.300;16.352;2023-03-12T03:48:37;0.77;;;0.50;;
43311;SDS011;30041;48.300;16.352;2023-03-12T03:51:03;0.68;;;0.50;;
43311;SDS011;30041;48.300;16.352;2023-03-12T03:53:30;0.43;;;0.40;;
43311;SDS011;30041;48.300;16.352;2023-03-12T03:55:56;1.02;;;0.45;;
43311;SDS011;30041;48.300;16.352;2023-03-12T03:58:22;0.43;;;0.40;;
43311;SDS011;30041;48.300;16.352;2023-03-12T04:00:47;0.82;;;0.45;;
43311;SDS011;30041;48.300;16.352;2023-03-12T04:03:13;0.40;;;0.30;;
43311;SDS011;30041;48.300;16.352;2023-03-12T04:05:39;0.68;;;0.40;;
43311;SDS011;30041;48.300;16.352;2023-03-12T04:08:05;1.35;;;0.60;;
43311;SDS011;30041;48.300;16.352;2023-03-12T04:10:30;0.95;;;0.52;;
43311;SDS011;30041;48.300;16.352;2023-03-12T04:12:56;0.70;;;0.47;;
43311;SDS011;30041;48.300;16.352;2023-03-12T04:15:22;0.47;;;0.40;;
43311;SDS011;30041;48.300;16.352;2023-03-12T04:17:48;0.93;;;0.60;;
43311;SDS011;30041;48.300;16.352;2023-03-12T04:20:13;0.95;;;0.47;;
43311;SDS011;30041;48.300;16.352;2023-03-12T04:22:39;0.90;;;0.40;;
43311;SDS011;30041;48.300;16.352;2023-03-12T04:25:05;0.90;;;0.50;;
43311;SDS011;30041;48.300;16.352;2023-03-12T04:27:31;1.05;;;0.52;;
43311;SDS011;30041;48.300;16.352;2023-03-12T04:29:58;2.13;;;0.45;;
43311;SDS011;30041;48.300;16.352;2023-03-12T04:32:23;1.00;;;0.60;;
43311;SDS011;30041;48.300;16.352;2023-03-12T04:34:51;0.68;;;0.40;;
43311;SDS011;30041;48.300;16.352;2023-03-12T04:37:17;1.17;;;0.60;;
43311;SDS011;30041;48.300;16.352;2023-03-12T04:39:42;0.70;;;0.55;;
43311;SDS011;30041;48.300;16.352;2023-03-12T04:42:09;0.80;;;0.50;;
43311;SDS011;30041;48.300;16.352;2023-03-12T04:44:35;0.85;;;0.60;;
43311;SDS011;30041;48.300;16.352;2023-03-12T04:47:01;0.80;;;0.50;;
43311;SDS011;30041;48.300;16.352;2023-03-12T04:49:27;0.70;;;0.50;;
43311;SDS011;30041;48.300;16.352;2023-03-12T04:51:53;0.55;;;0.40;;
43311;SDS011;30041;48.300;16.352;2023-03-12T04:54:19;0.93;;;0.68;;
43311;SDS011;30041;48.300;16.352;2023-03-12T04:56:44;0.93;;;0.50;;
43311;SDS011;30041;48.300;16.352;2023-03-12T04:59:10;0.80;;;0.68;;
43311;SDS011;30041;48.300;16.352;2023-03-12T05:01:36;0.85;;;0.50;;
43311;SDS011;30041;48.300;16.352;2023-03-12T05:04:02;1.30;;;0.70;;
43311;SDS011;30041;48.300;16.352;2023-03-12T05:06:28;0.68;;;0.60;;
43311;SDS011;30041;48.300;16.352;2023-03-12T05:08:53;0.95;;;0.50;;
43311;SDS011;30041;48.300;16.352;2023-03-12T05:11:20;1.27;;;0.60;;
43311;SDS011;30041;48.300;16.352;2023-03-12T05:13:46;0.68;;;0.55;;
43311;SDS011;30041;48.300;16.352;2023-03-12T05:16:12;0.47;;;0.43;;
43311;SDS011;30041;48.300;16.352;2023-03-12T05:18:39;0.52;;;0.40;;
43311;SDS011;30041;48.300;16.352;2023-03-12T05:21:09;0.75;;;0.50;;
43311;SDS011;30041;48.300;16.352;2023-03-12T05:23:37;0.50;;;0.40;;
43311;SDS011;30041;48.300;16.352;2023-03-12T05:26:04;0.60;;;0.40;;
43311;SDS011;30041;48.300;16.352;2023-03-12T05:28:30;2.03;;;0.57;;
43311;SDS011;30041;48.300;16.352;2023-03-12T05:30:56;0.82;;;0.43;;
43311;SDS011;30041;48.300;16.352;2023-03-12T05:33:23;0.70;;;0.50;;
43311;SDS011;30041;48.300;16.352;2023-03-12T05:35:49;0.90;;;0.52;;
43311;SDS011;30041;48.300;16.352;2023-03-12T05:38:14;0.60;;;0.40;;
43311;SDS011;30041;48.300;16.352;2023-03-12T05:40:40;0.60;;;0.40;;
43311;SDS011;30041;48.300;16.352;2023-03-12T05:43:06;0.40;;;0.30;;
43311;SDS011;30041;48.300;16.352;2023-03-12T05:45:31;0.45;;;0.35;;
43311;SDS011;30041;48.300;16.352;2023-03-12T05:47:57;0.60;;;0.30;;
43311;SDS011;30041;48.300;16.352;2023-03-12T05:50:23;0.35;;;0.35;;
43311;SDS011;30041;48.300;16.352;2023-03-12T05:52:49;0.38;;;0.32;;
43311;SDS011;30041;48.300;16.352;2023-03-12T05:55:15;0.45;;;0.40;;
43311;SDS011;30041;48.300;16.352;2023-03-12T05:57:40;0.52;;;0.40;;
43311;SDS011;30041;48.300;16.352;2023-03-12T06:00:06;0.60;;;0.30;;
43311;SDS011;30041;48.300;16.352;2023-03-12T06:02:33;0.45;;;0.32;;
43311;SDS011;30041;48.300;16.352;2023-03-12T06:04:58;0.43;;;0.30;;
43311;SDS011;30041;48.300;16.352;2023-03-12T06:07:26;0.60;;;0.30;;
43311;SDS011;30041;48.300;16.352;2023-03-12T06:09:51;0.57;;;0.30;;
43311;SDS011;30041;48.300;16.352;2023-03-12T06:12:17;0.30;;;0.30;;
43311;SDS011;30041;48.300;16.352;2023-03-12T06:14:43;0.40;;;0.20;;
43311;SDS011;30041;48.300;16.352;2023-03-12T06:17:08;0.38;;;0.30;;
43311;SDS011;30041;48.300;16.352;2023-03-12T06:19:34;1.23;;;0.50;;
43311;SDS011;30041;48.300;16.352;2023-03-12T06:21:59;0.52;;;0.28;;
43311;SDS011;30041;48.300;16.352;2023-03-12T06:24:25;0.20;;;0.20;;
43311;SDS011;30041;48.300;16.352;2023-03-12T06:26:51;0.50;;;0.20;;
43311;SDS011;30041;48.300;16.352;2023-03-12T06:29:16;0.30;;;0.20;;
43311;SDS011;30041;48.300;16.352;2023-03-12T06:31:42;0.40;;;0.30;;
43311;SDS011;30041;48.300;16.352;2023-03-12T06:34:07;0.25;;;0.20;;
43311;SDS011;30041;48.300;16.352;2023-03-12T06:36:33;0.20;;;0.20;;
43311;SDS011;30041;48.300;16.352;2023-03-12T06:38:59;0.22;;;0.17;;
43311;SDS011;30041;48.300;16.352;2023-03-12T06:41:24;0.50;;;0.30;;
43311;SDS011;30041;48.300;16.352;2023-03-12T06:43:50;0.20;;;0.20;;
43311;SDS011;30041;48.300;16.352;2023-03-12T06:46:17;0.20;;;0.20;;
43311;SDS011;30041;48.300;16.352;2023-03-12T06:48:44;0.30;;;0.20;;
43311;SDS011;30041;48.300;16.352;2023-03-12T06:51:10;0.63;;;0.30;;
43311;SDS011;30041;48.300;16.352;2023-03-12T06:53:37;0.43;;;0.30;;
43311;SDS011;30041;48.300;16.352;2023-03-12T06:56:03;0.20;;;0.20;;
43311;SDS011;30041;48.300;16.352;2023-03-12T06:58:29;0.20;;;0.20;;
43311;SDS011;30041;48.300;16.352;2023-03-12T07:00:58;0.00;;;0.00;;
43311;SDS011;30041;48.300;16.352;2023-03-12T07:03:23;0.47;;;0.10;;
43311;SDS011;30041;48.300;16.352;2023-03-12T07:05:50;0.13;;;0.10;;
43311;SDS011;30041;48.300;16.352;2023-03-12T07:08:16;0.20;;;0.20;;
43311;SDS011;30041;48.300;16.352;2023-03-12T07:10:43;0.35;;;0.20;;
43311;SDS011;30041;48.300;16.352;2023-03-12T07:13:09;0.10;;;0.10;;
43311;SDS011;30041;48.300;16.352;2023-03-12T07:15:35;0.35;;;0.20;;
43311;SDS011;30041;48.300;16.352;2023-03-12T07:18:04;0.50;;;0.20;;
43311;SDS011;30041;48.300;16.352;2023-03-12T07:20:31;0.20;;;0.15;;
43311;SDS011;30041;48.300;16.352;2023-03-12T07:22:58;0.20;;;0.20;;
43311;SDS011;30041;48.300;16.352;2023-03-12T07:25:24;0.43;;;0.17;;
43311;SDS011;30041;48.300;16.352;2023-03-12T07:27:49;0.15;;;0.00;;
43311;SDS011;30041;48.300;16.352;2023-03-12T07:30:15;0.28;;;0.20;;
43311;SDS011;30041;48.300;16.352;2023-03-12T07:32:41;0.43;;;0.17;;
43311;SDS011;30041;48.300;16.352;2023-03-12T07:35:06;0.32;;;0.20;;
43311;SDS011;30041;48.300;16.352;2023-03-12T07:37:32;0.00;;;0.00;;
43311;SDS011;30041;48.300;16.352;2023-03-12T07:39:58;0.32;;;0.20;;
43311;SDS011;30041;48.300;16.352;2023-03-12T07:42:23;0.10;;;0.00;;
43311;SDS011;30041;48.300;16.352;2023-03-12T07:44:49;0.20;;;0.10;;
43311;SDS011;30041;48.300;16.352;2023-03-12T07:47:14;0.05;;;0.05;;
43311;SDS011;30041;48.300;16.352;2023-03-12T07:49:40;0.20;;;0.20;;
43311;SDS011;30041;48.300;16.352;2023-03-12T07:52:06;0.10;;;0.10;;
43311;SDS011;30041;48.300;16.352;2023-03-12T07:54:35;0.10;;;0.10;;
43311;SDS011;30041;48.300;16.352;2023-03-12T07:57:01;0.10;;;0.10;;
43311;SDS011;30041;48.300;16.352;2023-03-12T07:59:26;0.35;;;0.10;;
43311;SDS011;30041;48.300;16.352;2023-03-12T08:01:52;0.00;;;0.00;;
43311;SDS011;30041;48.300;16.352;2023-03-12T08:04:18;0.00;;;0.00;;
43311;SDS011;30041;48.300;16.352;2023-03-12T08:06:44;0.20;;;0.10;;
43311;SDS011;30041;48.300;16.352;2023-03-12T08:09:09;0.93;;;0.20;;
43311;SDS011;30041;48.300;16.352;2023-03-12T08:11:35;0.10;;;0.10;;
43311;SDS011;30041;48.300;16.352;2023-03-12T08:14:02;0.00;;;0.00;;
43311;SDS011;30041;48.300;16.352;2023-03-12T08:16:28;0.10;;;0.00;;
43311;SDS011;30041;48.300;16.352;2023-03-12T08:18:54;0.08;;;0.00;;
43311;SDS011;30041;48.300;16.352;2023-03-12T08:21:20;0.10;;;0.10;;
43311;SDS011;30041;48.300;16.352;2023-03-12T08:23:45;0.17;;;0.03;;
43311;SDS011;30041;48.300;16.352;2023-03-12T08:26:11;0.20;;;0.10;;
43311;SDS011;30041;48.300;16.352;2023-03-12T08:28:37;0.30;;;0.10;;
43311;SDS011;30041;48.300;16.352;2023-03-12T08:31:03;0.13;;;0.00;;
43311;SDS011;30041;48.300;16.352;2023-03-12T08:33:28;0.00;;;0.00;;
43311;SDS011;30041;48.300;16.352;2023-03-12T08:35:54;0.30;;;0.10;;
43311;SDS011;30041;48.300;16.352;2023-03-12T08:38:20;0.13;;;0.03;;
43311;SDS011;30041;48.300;16.352;2023-03-12T08:40:45;0.00;;;0.00;;
43311;SDS011;30041;48.300;16.352;2023-03-12T08:43:11;0.00;;;0.00;;
43311;SDS011;30041;48.300;16.352;2023-03-12T08:45:36;0.05;;;0.03;;
43311;SDS011;30041;48.300;16.352;2023-03-12T08:48:03;0.10;;;0.10;;
43311;SDS011;30041;48.300;16.352;2023-03-12T08:50:29;0.00;;;0.00;;
43311;SDS011;30041;48.300;16.352;2023-03-12T08:52:55;0.00;;;0.00;;
43311;SDS011;30041;48.300;16.352;2023-03-12T08:55:20;0.10;;;0.10;;
43311;SDS011;30041;48.300;16.352;2023-03-12T08:57:46;0.10;;;0.10;;
43311;SDS011;30041;48.300;16.352;2023-03-12T09:00:12;0.40;;;0.10;;
43311;SDS011;30041;48.300;16.352;2023-03-12T09:02:38;0.95;;;0.30;;
43311;SDS011;30041;48.300;16.352;2023-03-12T09:05:03;1.85;;;0.50;;
43311;SDS011;30041;48.300;16.352;2023-03-12T09:07:30;2.00;;;0.52;;
43311;SDS011;30041;48.300;16.352;2023-03-12T09:09:56;3.33;;;0.68;;
43311;SDS011;30041;48.300;16.352;2023-03-12T09:12:22;2.00;;;0.80;;
43311;SDS011;30041;48.300;16.352;2023-03-12T09:14:48;5.32;;;0.85;;
43311;SDS011;30041;48.300;16.352;2023-03-12T09:17:14;1.65;;;0.77;;
43311;SDS011;30041;48.300;16.352;2023-03-12T09:19:40;2.90;;;0.95;;
43311;SDS011;30041;48.300;16.352;2023-03-12T09:22:05;4.68;;;0.73;;
43311;SDS011;30041;48.300;16.352;2023-03-12T09:24:31;2.40;;;0.90;;
43311;SDS011;30041;48.300;16.352;2023-03-12T09:26:56;3.15;;;0.70;;
43311;SDS011;30041;48.300;16.352;2023-03-12T09:29:22;2.63;;;0.90;;
43311;SDS011;30041;48.300;16.352;2023-03-12T09:31:47;2.72;;;0.80;;
43311;SDS011;30041;48.300;16.352;2023-03-12T09:34:13;8.57;;;1.20;;
43311;SDS011;30041;48.300;16.352;2023-03-12T09:36:38;13.93;;;1.10;;
43311;SDS011;30041;48.300;16.352;2023-03-12T09:39:04;4.75;;;0.95;;
43311;SDS011;30041;48.300;16.352;2023-03-12T09:41:30;6.85;;;1.02;;
43311;SDS011;30041;48.300;16.352;2023-03-12T09:44:11;3.67;;;0.90;;
43311;SDS011;30041;48.300;16.352;2023-03-12T09:46:49;2.95;;;0.80;;
43311;SDS011;30041;48.300;16.352;2023-03-12T09:49:21;4.93;;;1.10;;
43311;SDS011;30041;48.300;16.352;2023-03-12T09:51:59;7.88;;;1.02;;
43311;SDS011;30041;48.300;16.352;2023-03-12T09:54:30;4.95;;;1.00;;
43311;SDS011;30041;48.300;16.352;2023-03-12T09:57:00;3.03;;;0.80;;
43311;SDS011;30041;48.300;16.352;2023-03-12T09:59:28;1.92;;;0.95;;
43311;SDS011;30041;48.300;16.352;2023-03-12T10:01:55;6.68;;;1.08;;
43311;SDS011;30041;48.300;16.352;2023-03-12T10:04:33;4.07;;;0.77;;
43311;SDS011;30041;48.300;16.352;2023-03-12T10:07:14;3.42;;;0.70;;
43311;SDS011;30041;48.300;16.352;2023-03-12T10:12:32;2.08;;;0.80;;
43311;SDS011;30041;48.300;16.352;2023-03-12T10:15:26;4.25;;;1.00;;
43311;SDS011;30041;48.300;16.352;2023-03-12T10:18:07;3.65;;;1.00;;
43311;SDS011;30041;48.300;16.352;2023-03-12T10:21:00;3.00;;;0.90;;
43311;SDS011;30041;48.300;16.352;2023-03-12T10:26:22;2.13;;;0.80;;
43311;SDS011;30041;48.300;16.352;2023-03-12T10:28:59;1.35;;;0.65;;
43311;SDS011;30041;48.300;16.352;2023-03-12T10:31:52;2.38;;;0.70;;
43311;SDS011;30041;48.300;16.352;2023-03-12T10:36:59;3.53;;;0.73;;
43311;SDS011;30041;48.300;16.352;2023-03-12T10:39:36;2.28;;;0.80;;
43311;SDS011;30041;48.300;16.352;2023-03-12T10:42:10;3.60;;;0.60;;
43311;SDS011;30041;48.300;16.352;2023-03-12T10:44:52;1.92;;;0.70;;
43311;SDS011;30041;48.300;16.352;2023-03-12T10:52:41;4.05;;;0.90;;
43311;SDS011;30041;48.300;16.352;2023-03-12T10:55:21;2.15;;;0.85;;
43311;SDS011;30041;48.300;16.352;2023-03-12T10:57:52;2.70;;;0.85;;
43311;SDS011;30041;48.300;16.352;2023-03-12T11:00:24;2.10;;;1.00;;
43311;SDS011;30041;48.300;16.352;2023-03-12T11:08:18;2.95;;;1.20;;
43311;SDS011;30041;48.300;16.352;2023-03-12T11:10:46;2.97;;;0.93;;
43311;SDS011;30041;48.300;16.352;2023-03-12T11:13:25;3.53;;;1.23;;
43311;SDS011;30041;48.300;16.352;2023-03-12T11:16:23;3.15;;;1.15;;
43311;SDS011;30041;48.300;16.352;2023-03-12T11:18:59;2.75;;;1.20;;
43311;SDS011;30041;48.300;16.352;2023-03-12T11:21:25;4.07;;;1.27;;
43311;SDS011;30041;48.300;16.352;2023-03-12T11:26:22;4.32;;;1.90;;
43311;SDS011;30041;48.300;16.352;2023-03-12T11:34:09;3.10;;;1.50;;
43311;SDS011;30041;48.300;16.352;2023-03-12T11:36:47;3.50;;;1.80;;
43311;SDS011;30041;48.300;16.352;2023-03-12T11:39:32;3.55;;;1.95;;
43311;SDS011;30041;48.300;16.352;2023-03-12T11:48:24;3.78;;;1.60;;
43311;SDS011;30041;48.300;16.352;2023-03-12T11:56:58;2.95;;;1.20;;
43311;SDS011;30041;48.300;16.352;2023-03-12T12:08:34;3.13;;;1.20;;
43311;SDS011;30041;48.300;16.352;2023-03-12T12:19:06;2.92;;;1.40;;
43311;SDS011;30041;48.300;16.352;2023-03-12T12:24:14;3.70;;;1.55;;
43311;SDS011;30041;48.300;16.352;2023-03-12T12:30:01;5.03;;;1.65;;
43311;SDS011;30041;48.300;16.352;2023-03-12T12:32:52;2.55;;;1.55;;
43311;SDS011;30041;48.300;16.352;2023-03-12T12:40:55;9.38;;;1.85;;
43311;SDS011;30041;48.300;16.352;2023-03-12T12:43:27;2.70;;;1.33;;
43311;SDS011;30041;48.300;16.352;2023-03-12T12:45:58;2.60;;;1.38;;
43311;SDS011;30041;48.300;16.352;2023-03-12T12:48:29;3.38;;;1.33;;
43311;SDS011;30041;48.300;16.352;2023-03-12T12:51:00;3.10;;;1.40;;
43311;SDS011;30041;48.300;16.352;2023-03-12T12:59:48;2.50;;;1.35;;
43311;SDS011;30041;48.300;16.352;2023-03-12T13:02:29;2.70;;;1.30;;
43311;SDS011;30041;48.300;16.352;2023-03-12T13:05:03;2.95;;;1.10;;
43311;SDS011;30041;48.300;16.352;2023-03-12T13:07:43;2.03;;;1.20;;
43311;SDS011;30041;48.300;16.352;2023-03-12T13:10:36;2.72;;;1.30;;
43311;SDS011;30041;48.300;16.352;2023-03-12T13:12:57;2.78;;;1.40;;
43311;SDS011;30041;48.300;16.352;2023-03-12T13:20:28;2.42;;;1.10;;
43311;SDS011;30041;48.300;16.352;2023-03-12T13:23:23;3.40;;;1.25;;
43311;SDS011;30041;48.300;16.352;2023-03-12T13:26:07;1.77;;;1.00;;
43311;SDS011;30041;48.300;16.352;2023-03-12T13:33:55;1.35;;;0.80;;
43311;SDS011;30041;48.300;16.352;2023-03-12T13:36:23;3.83;;;0.90;;
43311;SDS011;30041;48.300;16.352;2023-03-12T13:38:59;2.35;;;0.98;;
43311;SDS011;30041;48.300;16.352;2023-03-12T13:46:47;1.73;;;0.88;;
43311;SDS011;30041;48.300;16.352;2023-03-12T13:49:39;2.17;;;1.00;;
43311;SDS011;30041;48.300;16.352;2023-03-12T13:52:18;1.50;;;0.90;;
43311;SDS011;30041;48.300;16.352;2023-03-12T13:54:46;1.80;;;0.90;;
43311;SDS011;30041;48.300;16.352;2023-03-12T13:59:58;1.23;;;0.70;;
43311;SDS011;30041;48.300;16.352;2023-03-12T14:02:29;1.48;;;0.75;;
43311;SDS011;30041;48.300;16.352;2023-03-12T14:05:02;1.45;;;0.80;;
43311;SDS011;30041;48.300;16.352;2023-03-12T14:07:47;1.95;;;0.77;;
43311;SDS011;30041;48.300;16.352;2023-03-12T14:18:35;1.52;;;0.82;;
43311;SDS011;30041;48.300;16.352;2023-03-12T14:21:06;1.77;;;0.73;;
43311;SDS011;30041;48.300;16.352;2023-03-12T14:23:35;3.53;;;0.90;;
43311;SDS011;30041;48.300;16.352;2023-03-12T14:26:04;2.33;;;0.88;;
43311;SDS011;30041;48.300;16.352;2023-03-12T14:28:30;1.67;;;0.90;;
43311;SDS011;30041;48.300;16.352;2023-03-12T14:31:04;2.45;;;1.00;;
43311;SDS011;30041;48.300;16.352;2023-03-12T14:36:21;5.22;;;1.20;;
43311;SDS011;30041;48.300;16.352;2023-03-12T14:38:52;3.60;;;1.00;;
43311;SDS011;30041;48.300;16.352;2023-03-12T14:41:35;3.10;;;1.23;;
43311;SDS011;30041;48.300;16.352;2023-03-12T14:44:22;2.97;;;1.10;;
43311;SDS011;30041;48.300;16.352;2023-03-12T14:47:04;3.08;;;0.93;;
43311;SDS011;30041;48.300;16.352;2023-03-12T14:49:41;5.68;;;1.10;;
43311;SDS011;30041;48.300;16.352;2023-03-12T14:52:12;3.42;;;1.17;;
43311;SDS011;30041;48.300;16.352;2023-03-12T14:54:54;4.28;;;1.33;;
43311;SDS011;30041;48.300;16.352;2023-03-12T14:57:25;3.72;;;1.30;;
43311;SDS011;30041;48.300;16.352;2023-03-12T14:59:51;3.25;;;1.40;;
43311;SDS011;30041;48.300;16.352;2023-03-12T15:02:21;5.50;;;1.60;;
43311;SDS011;30041;48.300;16.352;2023-03-12T15:04:48;4.65;;;1.60;;
43311;SDS011;30041;48.300;16.352;2023-03-12T15:07:21;4.03;;;1.48;;
43311;SDS011;30041;48.300;16.352;2023-03-12T15:09:52;3.33;;;1.70;;
43311;SDS011;30041;48.300;16.352;2023-03-12T15:12:21;2.67;;;1.55;;
43311;SDS011;30041;48.300;16.352;2023-03-12T15:14:50;5.05;;;1.58;;
43311;SDS011;30041;48.300;16.352;2023-03-12T15:17:25;4.65;;;1.63;;
43311;SDS011;30041;48.300;16.352;2023-03-12T15:19:54;4.60;;;1.85;;
43311;SDS011;30041;48.300;16.352;2023-03-12T15:22:21;3.97;;;1.90;;
43311;SDS011;30041;48.300;16.352;2023-03-12T15:24:48;4.82;;;2.30;;
43311;SDS011;30041;48.300;16.352;2023-03-12T15:29:50;6.88;;;2.13;;
43311;SDS011;30041;48.300;16.352;2023-03-12T15:32:17;4.22;;;2.28;;
43311;SDS011;30041;48.300;16.352;2023-03-12T15:34:43;5.38;;;2.65;;
43311;SDS011;30041;48.300;16.352;2023-03-12T15:37:27;4.88;;;2.50;;
43311;SDS011;30041;48.300;16.352;2023-03-12T15:39:55;9.55;;;2.50;;
43311;SDS011;30041;48.300;16.352;2023-03-12T15:42:22;6.18;;;2.50;;
43311;SDS011;30041;48.300;16.352;2023-03-12T15:44:50;4.53;;;2.75;;
43311;SDS011;30041;48.300;16.352;2023-03-12T15:47:28;5.55;;;2.70;;
43311;SDS011;30041;48.300;16.352;2023-03-12T15:49:57;5.78;;;2.80;;
43311;SDS011;30041;48.300;16.352;2023-03-12T15:52:31;4.88;;;2.58;;
43311;SDS011;30041;48.300;16.352;2023-03-12T15:54:59;6.03;;;2.67;;
43311;SDS011;30041;48.300;16.352;2023-03-12T15:57:28;6.82;;;3.17;;
43311;SDS011;30041;48.300;16.352;2023-03-12T16:01:04;6.60;;;2.83;;
43311;SDS011;30041;48.300;16.352;2023-03-12T16:02:59;5.55;;;2.72;;
43311;SDS011;30041;48.300;16.352;2023-03-12T16:05:27;4.68;;;2.60;;
43311;SDS011;30041;48.300;16.352;2023-03-12T16:07:55;4.80;;;2.60;;
43311;SDS011;30041;48.300;16.352;2023-03-12T16:10:22;5.53;;;2.67;;
43311;SDS011;30041;48.300;16.352;2023-03-12T16:12:50;4.70;;;2.60;;
43311;SDS011;30041;48.300;16.352;2023-03-12T16:15:25;4.93;;;2.80;;
43311;SDS011;30041;48.300;16.352;2023-03-12T16:17:56;4.50;;;2.45;;
43311;SDS011;30041;48.300;16.352;2023-03-12T16:20:22;5.75;;;2.40;;
43311;SDS011;30041;48.300;16.352;2023-03-12T16:22:47;10.88;;;2.50;;
43311;SDS011;30041;48.300;16.352;2023-03-12T16:25:13;8.05;;;2.33;;
43311;SDS011;30041;48.300;16.352;2023-03-12T16:27:45;8.05;;;2.63;;
43311;SDS011;30041;48.300;16.352;2023-03-12T16:30:16;18.52;;;3.28;;
43311;SDS011;30041;48.300;16.352;2023-03-12T16:32:52;11.07;;;2.45;;